createdAt,value
2019-03-24T00:00:29.652Z,29.25
2019-03-24T00:02:58.046Z,30.10
2019-03-24T00:05:26.464Z,32.67
2019-03-24T00:07:56.809Z,31.30
2019-03-24T00:10:25.004Z,35.00
2019-03-24T00:12:53.405Z,35.50
2019-03-24T00:15:26.240Z,31.80
2019-03-24T00:17:51.935Z,33.93
2019-03-24T00:20:20.333Z,32.37
2019-03-24T00:22:48.893Z,34.23
2019-03-24T00:25:17.298Z,34.47
2019-03-24T00:27:45.698Z,36.43
2019-03-24T00:30:14.454Z,32.53
2019-03-24T00:32:42.853Z,32.23
2019-03-24T00:35:11.341Z,25.97
2019-03-24T00:37:40.150Z,29.80
2019-03-24T00:40:09.485Z,37.23
2019-03-24T00:42:37.958Z,35.17
2019-03-24T00:45:08.402Z,33.63
2019-03-24T00:47:36.824Z,32.10
2019-03-24T00:50:08.459Z,32.10
2019-03-24T00:52:36.867Z,30.80
2019-03-24T00:55:07.223Z,25.73
2019-03-24T00:57:37.458Z,27.97
2019-03-24T01:00:10.698Z,28.47
2019-03-24T01:02:39.119Z,31.30
2019-03-24T01:05:08.060Z,30.30
2019-03-24T01:07:36.556Z,28.87
2019-03-24T01:10:07.064Z,29.47
2019-03-24T01:12:35.473Z,31.37
2019-03-24T01:15:04.705Z,30.27
2019-03-24T01:17:33.950Z,29.83
2019-03-24T01:20:02.349Z,29.53
2019-03-24T01:22:30.768Z,26.53
2019-03-24T01:24:59.171Z,26.90
2019-03-24T01:27:27.572Z,28.37
2019-03-24T01:29:57.354Z,28.60
2019-03-24T01:32:25.747Z,30.00
2019-03-24T01:34:54.150Z,25.40
2019-03-24T01:37:22.576Z,26.37
2019-03-24T01:39:50.974Z,24.13
2019-03-24T01:42:19.402Z,26.00
2019-03-24T01:44:48.475Z,26.77
2019-03-24T01:47:16.883Z,26.13
2019-03-24T01:49:45.302Z,27.40
2019-03-24T01:52:13.697Z,28.37
2019-03-24T01:54:42.121Z,28.70
2019-03-24T01:57:10.536Z,28.43
2019-03-24T01:59:38.924Z,32.07
2019-03-24T02:02:07.341Z,30.43
2019-03-24T02:04:35.832Z,30.53
2019-03-24T02:07:04.298Z,31.37
2019-03-24T02:09:32.720Z,32.30
2019-03-24T02:12:01.125Z,28.40
2019-03-24T02:14:29.957Z,30.30
2019-03-24T02:16:59.335Z,28.67
2019-03-24T02:19:27.825Z,27.97
2019-03-24T02:21:56.246Z,29.17
2019-03-24T02:24:25.361Z,27.73
2019-03-24T02:26:53.916Z,31.13
2019-03-24T02:29:22.313Z,26.93
2019-03-24T02:31:50.726Z,29.77
2019-03-24T02:34:19.159Z,27.60
2019-03-24T02:36:47.558Z,26.90
2019-03-24T02:39:16.117Z,26.37
2019-03-24T02:41:44.515Z,26.50
2019-03-24T02:44:12.915Z,27.00
2019-03-24T02:46:41.340Z,31.20
2019-03-24T02:49:09.736Z,29.03
2019-03-24T02:51:38.152Z,31.00
2019-03-24T02:54:06.545Z,30.30
2019-03-24T02:56:34.948Z,29.73
2019-03-24T02:59:03.360Z,28.10
2019-03-24T03:01:31.754Z,30.37
2019-03-24T03:04:00.177Z,32.43
2019-03-24T03:06:28.598Z,30.40
2019-03-24T03:08:57.032Z,29.50
2019-03-24T03:11:25.724Z,28.53
2019-03-24T03:13:54.126Z,28.33
2019-03-24T03:16:22.545Z,26.50
2019-03-24T03:18:50.941Z,27.33
2019-03-24T03:21:19.626Z,26.20
2019-03-24T03:23:48.315Z,27.80
2019-03-24T03:26:16.733Z,27.80
2019-03-24T03:28:45.137Z,30.47
2019-03-24T03:31:13.542Z,31.23
2019-03-24T03:33:41.968Z,28.77
2019-03-24T03:36:10.376Z,28.73
2019-03-24T03:38:38.798Z,30.70
2019-03-24T03:41:07.357Z,29.57
2019-03-24T03:43:35.751Z,34.00
2019-03-24T03:46:04.555Z,32.17
2019-03-24T03:48:32.959Z,32.17
2019-03-24T03:51:01.357Z,30.07
2019-03-24T03:53:29.810Z,30.53
2019-03-24T03:55:58.242Z,30.57
2019-03-24T03:58:26.674Z,30.70
2019-03-24T04:00:55.087Z,30.87
2019-03-24T04:03:23.493Z,33.17
2019-03-24T04:05:52.296Z,36.00
2019-03-24T04:08:20.694Z,31.87
2019-03-24T04:10:49.363Z,29.00
2019-03-24T04:13:17.770Z,32.47
2019-03-24T04:15:46.172Z,32.00
2019-03-24T04:18:14.711Z,32.97
2019-03-24T04:20:43.113Z,31.67
2019-03-24T04:23:11.522Z,33.20
2019-03-24T04:25:39.944Z,30.43
2019-03-24T04:28:08.620Z,30.93
2019-03-24T04:30:37.038Z,32.10
2019-03-24T04:33:05.453Z,31.23
2019-03-24T04:35:34.146Z,31.07
2019-03-24T04:38:02.572Z,34.40
2019-03-24T04:40:30.974Z,32.87
2019-03-24T04:42:59.373Z,31.87
2019-03-24T04:45:27.794Z,32.00
2019-03-24T04:47:56.190Z,32.73
2019-03-24T04:50:24.613Z,31.90
2019-03-24T04:52:53.016Z,31.60
2019-03-24T04:55:21.431Z,30.10
2019-03-24T04:57:49.843Z,30.77
2019-03-24T05:00:21.286Z,30.67
2019-03-24T05:02:49.714Z,31.70
2019-03-24T05:05:18.105Z,33.47
2019-03-24T05:07:46.676Z,35.33
2019-03-24T05:10:26.352Z,33.93
2019-03-24T05:12:54.749Z,33.50
2019-03-24T05:15:23.415Z,34.17
2019-03-24T05:17:51.845Z,35.20
2019-03-24T05:20:20.513Z,34.93
2019-03-24T05:22:48.927Z,37.77
2019-03-24T05:25:17.394Z,37.73
2019-03-24T05:27:45.794Z,34.93
2019-03-24T05:30:14.212Z,34.23
2019-03-24T05:32:42.919Z,34.90
2019-03-24T05:35:12.612Z,33.83
2019-03-24T05:37:41.009Z,35.67
2019-03-24T05:40:09.585Z,41.77
2019-03-24T05:42:37.998Z,40.50
2019-03-24T05:45:07.529Z,37.13
2019-03-24T05:47:37.444Z,38.10
2019-03-24T05:50:08.245Z,37.53
2019-03-24T05:52:36.640Z,38.47
2019-03-24T05:55:06.620Z,37.93
2019-03-24T05:57:34.997Z,35.90
2019-03-24T06:00:05.546Z,35.30
2019-03-24T06:02:33.946Z,37.33
2019-03-24T06:05:02.361Z,38.70
2019-03-24T06:07:31.760Z,36.43
2019-03-24T06:10:00.366Z,38.60
2019-03-24T06:12:28.806Z,34.40
2019-03-24T06:14:57.197Z,36.70
2019-03-24T06:17:25.619Z,34.20
2019-03-24T06:19:54.012Z,33.90
2019-03-24T06:22:22.418Z,32.58
2019-03-24T06:24:50.834Z,37.07
2019-03-24T06:27:19.238Z,34.63
2019-03-24T06:29:47.676Z,36.73
2019-03-24T06:32:16.078Z,37.50
2019-03-24T06:34:44.759Z,34.50
2019-03-24T06:37:13.187Z,33.37
2019-03-24T06:39:41.587Z,32.13
2019-03-24T06:42:10.009Z,32.93
2019-03-24T06:44:38.401Z,33.73
2019-03-24T06:47:06.802Z,33.07
2019-03-24T06:49:35.217Z,31.50
2019-03-24T06:52:03.681Z,32.80
2019-03-24T06:54:32.101Z,33.10
2019-03-24T06:57:00.771Z,30.87
2019-03-24T06:59:29.179Z,30.90
2019-03-24T07:01:57.604Z,30.43
2019-03-24T07:04:25.995Z,33.50
2019-03-24T07:06:54.461Z,31.27
2019-03-24T07:09:22.848Z,33.00
2019-03-24T07:11:51.262Z,30.37
2019-03-24T07:14:19.696Z,34.30
2019-03-24T07:16:48.098Z,34.63
2019-03-24T07:19:16.509Z,33.23
2019-03-24T07:21:44.926Z,34.17
2019-03-24T07:24:13.315Z,34.50
2019-03-24T07:26:41.737Z,34.97
2019-03-24T07:29:10.141Z,37.07
2019-03-24T07:31:38.539Z,35.00
2019-03-24T07:34:06.954Z,33.53
2019-03-24T07:36:35.350Z,35.63
2019-03-24T07:39:05.027Z,35.93
2019-03-24T07:41:33.418Z,35.37
2019-03-24T07:44:01.818Z,35.33
2019-03-24T07:46:30.246Z,36.00
2019-03-24T07:48:58.645Z,35.13
2019-03-24T07:51:27.049Z,36.57
2019-03-24T07:53:55.466Z,34.67
2019-03-24T07:56:23.861Z,33.97
2019-03-24T07:58:52.268Z,36.53
2019-03-24T08:01:20.701Z,34.97
2019-03-24T08:03:49.101Z,34.90
2019-03-24T08:06:17.513Z,33.47
2019-03-24T08:08:45.931Z,37.97
2019-03-24T08:11:14.345Z,34.83
2019-03-24T08:13:53.276Z,33.80
2019-03-24T08:16:12.864Z,35.47
2019-03-24T08:18:41.280Z,33.17
2019-03-24T08:21:09.749Z,33.00
2019-03-24T08:23:38.242Z,35.87
2019-03-24T08:26:06.640Z,32.93
2019-03-24T08:28:35.036Z,35.23
2019-03-24T08:31:03.462Z,35.68
2019-03-24T08:33:31.858Z,34.97
2019-03-24T08:36:00.282Z,34.87
2019-03-24T08:38:28.685Z,36.07
2019-03-24T08:40:57.114Z,35.17
2019-03-24T08:43:25.508Z,35.67
2019-03-24T08:45:53.905Z,34.63
2019-03-24T08:48:22.304Z,33.50
2019-03-24T08:50:50.727Z,33.87
2019-03-24T08:53:19.125Z,35.03
2019-03-24T08:55:47.560Z,35.47
2019-03-24T08:58:15.963Z,34.10
2019-03-24T09:00:45.068Z,34.50
2019-03-24T09:03:13.486Z,33.93
2019-03-24T09:05:41.883Z,31.23
2019-03-24T09:08:10.283Z,33.47
2019-03-24T09:10:38.705Z,33.00
2019-03-24T09:13:07.114Z,31.70
2019-03-24T09:15:35.509Z,31.50
2019-03-24T09:18:03.938Z,32.00
2019-03-24T09:20:41.207Z,35.70
2019-03-24T09:23:02.496Z,31.37
2019-03-24T09:25:30.970Z,31.67
2019-03-24T09:27:59.477Z,34.53
2019-03-24T09:30:32.391Z,35.30
2019-03-24T09:33:00.793Z,32.83
2019-03-24T09:35:29.455Z,32.50
2019-03-24T09:37:58.103Z,32.63
2019-03-24T09:40:35.005Z,31.43
2019-03-24T09:43:04.640Z,31.10
2019-03-24T09:45:33.480Z,32.83
2019-03-24T09:48:02.073Z,31.87
2019-03-24T09:50:30.549Z,30.60
2019-03-24T09:52:59.055Z,30.57
2019-03-24T09:55:27.453Z,29.77
2019-03-24T09:57:55.857Z,30.90
2019-03-24T10:00:24.256Z,30.93
2019-03-24T10:02:52.706Z,30.07
2019-03-24T10:05:21.170Z,30.80
2019-03-24T10:07:49.581Z,30.27
2019-03-24T10:10:18.015Z,29.77
2019-03-24T10:12:46.425Z,30.50
2019-03-24T10:15:15.088Z,29.80
2019-03-24T10:17:43.959Z,30.40
2019-03-24T10:20:12.619Z,29.97
2019-03-24T10:22:41.359Z,28.23
2019-03-24T10:25:09.780Z,29.97
2019-03-24T10:27:38.192Z,31.80
2019-03-24T10:30:08.843Z,30.13
2019-03-24T10:32:37.285Z,30.30
2019-03-24T10:35:07.236Z,30.17
2019-03-24T10:37:35.667Z,28.53
2019-03-24T10:40:05.305Z,29.40
2019-03-24T10:42:33.708Z,30.77
2019-03-24T10:45:02.200Z,28.97
2019-03-24T10:47:30.883Z,29.53
2019-03-24T10:49:59.667Z,29.53
2019-03-24T10:52:28.075Z,29.00
2019-03-24T10:54:56.503Z,30.33
2019-03-24T10:57:24.908Z,29.70
2019-03-24T10:59:53.337Z,26.23
2019-03-24T11:02:21.919Z,27.17
2019-03-24T11:04:50.318Z,24.67
2019-03-24T11:07:18.745Z,28.20
2019-03-24T11:09:47.144Z,25.90
2019-03-24T11:12:15.563Z,27.47
2019-03-24T11:14:43.981Z,25.70
2019-03-24T11:17:12.395Z,23.43
2019-03-24T11:19:40.793Z,25.20
2019-03-24T11:22:09.225Z,26.00
2019-03-24T11:24:37.629Z,27.23
2019-03-24T11:27:06.037Z,25.17
2019-03-24T11:29:34.463Z,24.73
2019-03-24T11:32:02.879Z,26.97
2019-03-24T11:34:31.277Z,26.80
2019-03-24T11:36:59.701Z,27.20
2019-03-24T11:41:49.372Z,27.83
2019-03-24T11:44:17.786Z,26.67
2019-03-24T11:46:46.198Z,27.77
2019-03-24T11:49:19.488Z,25.87
2019-03-24T11:51:47.925Z,25.53
2019-03-24T11:54:16.674Z,25.63
2019-03-24T11:56:45.088Z,24.37
2019-03-24T11:59:13.481Z,26.77
2019-03-24T12:01:41.909Z,27.70
2019-03-24T12:04:10.312Z,27.00
2019-03-24T12:06:38.740Z,27.20
2019-03-24T12:09:07.553Z,26.00
2019-03-24T12:11:35.955Z,28.80
2019-03-24T12:14:04.918Z,24.73
2019-03-24T12:16:34.119Z,21.83
2019-03-24T12:19:02.516Z,21.90
2019-03-24T12:21:30.948Z,20.37
2019-03-24T12:23:59.400Z,19.97
2019-03-24T12:26:27.756Z,17.77
2019-03-24T12:28:56.196Z,18.03
2019-03-24T12:31:24.672Z,17.77
2019-03-24T12:33:53.075Z,20.10
2019-03-24T12:36:21.501Z,18.77
2019-03-24T12:38:49.911Z,19.67
2019-03-24T12:41:18.312Z,20.23
2019-03-24T12:43:46.768Z,18.33
2019-03-24T12:46:15.154Z,19.23
2019-03-24T12:48:43.558Z,19.33
2019-03-24T12:51:12.001Z,18.80
2019-03-24T12:53:40.399Z,18.60
2019-03-24T12:56:08.803Z,19.17
2019-03-24T12:58:37.244Z,19.50
2019-03-24T13:01:05.725Z,20.60
2019-03-24T13:03:35.874Z,22.67
2019-03-24T13:06:04.863Z,22.70
2019-03-24T13:08:33.261Z,21.60
2019-03-24T13:11:01.660Z,19.77
2019-03-24T13:13:30.090Z,21.57
2019-03-24T13:15:58.493Z,21.67
2019-03-24T13:18:26.899Z,19.87
2019-03-24T13:20:55.509Z,19.90
2019-03-24T13:23:23.911Z,22.77
2019-03-24T13:25:52.381Z,20.10
2019-03-24T13:28:20.829Z,21.67
2019-03-24T13:30:49.209Z,21.60
2019-03-24T13:33:17.696Z,21.93
2019-03-24T13:35:47.282Z,22.37
2019-03-24T13:38:15.687Z,21.73
2019-03-24T13:40:44.088Z,20.07
2019-03-24T13:43:12.511Z,18.10
2019-03-24T13:45:40.906Z,18.63
2019-03-24T13:48:09.348Z,196.87
2019-03-24T13:50:37.750Z,32.57
2019-03-24T13:53:06.154Z,16.70
2019-03-24T13:55:34.579Z,15.67
2019-03-24T13:58:04.065Z,15.32
2019-03-24T14:00:32.468Z,14.13
2019-03-24T14:03:01.180Z,15.47
2019-03-24T14:05:29.590Z,18.07
2019-03-24T14:07:57.997Z,16.63
2019-03-24T14:10:26.415Z,16.67
2019-03-24T14:12:54.819Z,18.03
2019-03-24T14:15:23.220Z,16.03
2019-03-24T14:17:51.651Z,19.03
2019-03-24T14:20:20.058Z,18.53
2019-03-24T14:22:48.465Z,19.43
2019-03-24T14:25:16.888Z,19.40
2019-03-24T14:27:45.291Z,20.40
2019-03-24T14:30:14.226Z,20.43
2019-03-24T14:32:42.663Z,34.47
2019-03-24T14:35:11.585Z,21.53
2019-03-24T14:37:39.994Z,20.37
2019-03-24T14:40:08.865Z,19.63
2019-03-24T14:42:37.302Z,19.30
2019-03-24T14:45:09.103Z,19.53
2019-03-24T14:47:38.089Z,18.40
2019-03-24T14:50:12.181Z,20.00
2019-03-24T14:52:40.611Z,23.63
2019-03-24T14:55:09.198Z,21.17
2019-03-24T14:57:37.604Z,20.37
2019-03-24T15:00:07.923Z,20.00
2019-03-24T15:02:36.357Z,19.10
2019-03-24T15:05:06.989Z,18.63
2019-03-24T15:07:35.395Z,18.27
2019-03-24T15:10:07.866Z,19.50
2019-03-24T15:12:36.283Z,18.57
2019-03-24T15:15:07.454Z,18.17
2019-03-24T15:17:36.134Z,18.67
2019-03-24T15:20:06.487Z,18.00
2019-03-24T15:22:34.906Z,17.63
2019-03-24T15:25:03.376Z,17.03
2019-03-24T15:27:31.803Z,17.97
2019-03-24T15:30:00.459Z,18.07
2019-03-24T15:32:28.908Z,16.90
2019-03-24T15:34:57.317Z,16.97
2019-03-24T15:37:25.755Z,15.90
2019-03-24T15:39:54.151Z,17.03
2019-03-24T15:42:22.560Z,14.17
2019-03-24T15:44:50.986Z,15.43
2019-03-24T15:47:19.391Z,12.97
2019-03-24T15:49:48.122Z,13.53
2019-03-24T15:52:16.553Z,12.87
2019-03-24T15:54:44.952Z,11.33
2019-03-24T15:57:13.354Z,11.53
2019-03-24T15:59:42.454Z,13.67
2019-03-24T16:02:10.851Z,10.87
2019-03-24T16:04:39.287Z,10.87
2019-03-24T16:07:07.692Z,10.33
2019-03-24T16:09:36.103Z,11.43
2019-03-24T16:12:04.531Z,10.73
2019-03-24T16:14:32.936Z,10.60
2019-03-24T16:17:01.340Z,11.30
2019-03-24T16:19:29.773Z,11.27
2019-03-24T16:21:58.470Z,11.03
2019-03-24T16:24:26.889Z,10.63
2019-03-24T16:26:55.314Z,9.03
2019-03-24T16:29:23.720Z,8.20
2019-03-24T16:31:52.119Z,8.47
2019-03-24T16:34:20.552Z,11.28
2019-03-24T16:36:48.949Z,7.87
2019-03-24T16:39:17.353Z,7.97
2019-03-24T16:41:45.773Z,6.90
2019-03-24T16:44:14.172Z,6.77
2019-03-24T16:46:44.261Z,6.43
2019-03-24T16:49:12.670Z,6.80
2019-03-24T16:51:41.713Z,7.60
2019-03-24T16:54:10.174Z,6.43
2019-03-24T16:56:38.567Z,5.60
2019-03-24T16:59:06.973Z,6.23
2019-03-24T17:01:35.388Z,6.97
2019-03-24T17:04:03.797Z,5.47
2019-03-24T17:06:32.196Z,5.80
2019-03-24T17:09:01.071Z,5.53
2019-03-24T17:11:29.467Z,5.90
2019-03-24T17:13:57.868Z,6.10
2019-03-24T17:16:26.298Z,5.17
2019-03-24T17:18:54.706Z,4.83
2019-03-24T17:21:23.103Z,4.93
2019-03-24T17:23:51.585Z,4.90
2019-03-24T17:26:19.997Z,5.17
2019-03-24T17:28:48.392Z,4.43
2019-03-24T17:31:16.811Z,4.13
2019-03-24T17:33:45.214Z,3.93
2019-03-24T17:36:13.661Z,3.97
2019-03-24T17:38:42.068Z,3.70
2019-03-24T17:41:10.466Z,4.07
2019-03-24T17:43:38.866Z,4.13
2019-03-24T17:46:07.567Z,4.30
2019-03-24T17:48:35.970Z,3.63
2019-03-24T17:51:04.368Z,4.57
2019-03-24T17:53:32.784Z,4.00
2019-03-24T17:56:01.218Z,4.53
2019-03-24T17:58:29.620Z,5.23
2019-03-24T18:00:58.061Z,4.43
2019-03-24T18:03:26.460Z,4.60
2019-03-24T18:05:54.887Z,4.60
2019-03-24T18:08:23.294Z,4.37
2019-03-24T18:10:52.024Z,4.27
2019-03-24T18:13:20.440Z,4.30
2019-03-24T18:15:48.832Z,4.13
2019-03-24T18:18:17.224Z,4.03
2019-03-24T18:20:45.958Z,4.37
2019-03-24T18:23:14.351Z,4.07
2019-03-24T18:25:42.747Z,4.10
2019-03-24T18:28:11.172Z,4.70
2019-03-24T18:30:39.571Z,4.63
2019-03-24T18:33:07.967Z,5.43
2019-03-24T18:35:36.392Z,5.33
2019-03-24T18:38:05.126Z,3.73
2019-03-24T18:40:33.524Z,4.77
2019-03-24T18:43:01.931Z,3.93
2019-03-24T18:45:30.441Z,4.67
2019-03-24T18:47:59.130Z,5.20
2019-03-24T18:50:27.543Z,5.23
2019-03-24T18:52:55.944Z,5.13
2019-03-24T18:55:24.361Z,4.50
2019-03-24T18:57:52.749Z,4.73
2019-03-24T19:00:21.685Z,4.83
2019-03-24T19:02:50.100Z,4.80
2019-03-24T19:05:19.068Z,5.80
2019-03-24T19:07:48.761Z,5.40
2019-03-24T19:10:17.322Z,11.60
2019-03-24T19:12:45.721Z,5.40
2019-03-24T19:15:16.219Z,4.20
2019-03-24T19:17:44.772Z,3.63
2019-03-24T19:20:13.701Z,4.30
2019-03-24T19:22:42.098Z,4.47
2019-03-24T19:25:10.845Z,4.40
2019-03-24T19:27:39.240Z,4.20
2019-03-24T19:30:10.712Z,4.37
2019-03-24T19:32:39.104Z,3.90
2019-03-24T19:35:08.034Z,3.90
2019-03-24T19:37:36.992Z,5.13
2019-03-24T19:40:08.445Z,4.40
2019-03-24T19:42:36.837Z,4.83
2019-03-24T19:45:06.701Z,3.90
2019-03-24T19:47:35.099Z,3.77
2019-03-24T19:50:04.638Z,10.77
2019-03-24T19:52:40.513Z,8.33
2019-03-24T19:55:03.448Z,5.13
2019-03-24T19:57:31.834Z,4.73
2019-03-24T20:00:00.364Z,4.70
2019-03-24T20:02:28.816Z,4.97
2019-03-24T20:04:57.232Z,4.60
2019-03-24T20:07:25.627Z,3.97
2019-03-24T20:09:54.019Z,3.60
2019-03-24T20:12:22.432Z,4.20
2019-03-24T20:14:51.103Z,3.57
2019-03-24T20:17:19.515Z,3.50
2019-03-24T20:19:47.909Z,3.60
2019-03-24T20:22:16.300Z,3.50
2019-03-24T20:24:44.720Z,4.80
2019-03-24T20:27:13.110Z,3.67
2019-03-24T20:29:41.524Z,4.80
2019-03-24T20:32:09.918Z,4.27
2019-03-24T20:34:38.322Z,3.63
2019-03-24T20:37:06.732Z,3.87
2019-03-24T20:39:35.395Z,3.43
2019-03-24T20:42:03.784Z,3.47
2019-03-24T20:44:32.199Z,3.47
2019-03-24T20:47:00.589Z,4.20
2019-03-24T20:49:28.982Z,4.30
2019-03-24T20:51:57.400Z,3.93
2019-03-24T20:54:25.824Z,4.07
2019-03-24T20:56:54.206Z,3.50
2019-03-24T20:59:22.623Z,4.20
2019-03-24T21:01:51.012Z,4.23
2019-03-24T21:04:20.352Z,4.30
2019-03-24T21:06:48.901Z,4.03
2019-03-24T21:09:17.297Z,4.63
2019-03-24T21:11:45.691Z,4.30
2019-03-24T21:14:14.108Z,4.12
2019-03-24T21:16:42.497Z,4.30
2019-03-24T21:19:10.899Z,7.47
2019-03-24T21:21:39.315Z,4.20
2019-03-24T21:24:07.711Z,3.77
2019-03-24T21:26:36.097Z,3.90
2019-03-24T21:29:04.517Z,4.17
2019-03-24T21:31:32.911Z,3.77
2019-03-24T21:34:01.312Z,3.57
2019-03-24T21:36:29.719Z,3.93
2019-03-24T21:38:58.110Z,4.00
2019-03-24T21:41:26.598Z,4.20
2019-03-24T21:43:54.992Z,4.13
2019-03-24T21:46:23.383Z,4.47
2019-03-24T21:48:51.804Z,5.20
2019-03-24T21:51:20.192Z,4.73
2019-03-24T21:53:48.586Z,5.30
2019-03-24T21:56:17.004Z,4.70
2019-03-24T21:58:45.399Z,6.53
2019-03-24T22:01:13.799Z,6.40
2019-03-24T22:03:42.229Z,5.33
2019-03-24T22:06:10.626Z,5.33
2019-03-24T22:08:39.021Z,9.40
2019-03-24T22:11:07.456Z,11.60
2019-03-24T22:13:35.851Z,9.33
2019-03-24T22:16:04.249Z,8.87
2019-03-24T22:18:32.979Z,10.17
2019-03-24T22:21:01.379Z,8.33
2019-03-24T22:23:29.774Z,7.50
2019-03-24T22:25:58.190Z,8.27
2019-03-24T22:28:26.581Z,7.30
2019-03-24T22:30:54.977Z,6.03
2019-03-24T22:33:23.402Z,6.90
2019-03-24T22:35:52.144Z,7.80
2019-03-24T22:38:20.542Z,7.17
2019-03-24T22:40:48.952Z,6.80
2019-03-24T22:43:17.342Z,7.37
2019-03-24T22:45:45.736Z,6.20
2019-03-24T22:48:14.163Z,5.60
2019-03-24T22:50:42.549Z,5.50
2019-03-24T22:53:10.963Z,5.73
2019-03-24T22:55:39.676Z,5.33
2019-03-24T22:58:08.097Z,5.00
2019-03-24T23:00:52.879Z,5.20
2019-03-24T23:03:21.547Z,4.97
2019-03-24T23:05:49.960Z,4.73
2019-03-24T23:08:18.429Z,5.17
2019-03-24T23:10:46.827Z,4.83
2019-03-24T23:13:15.242Z,7.13
2019-03-24T23:15:43.642Z,5.03
2019-03-24T23:18:12.032Z,5.17
2019-03-24T23:20:40.694Z,3.80
2019-03-24T23:23:09.083Z,3.83
2019-03-24T23:25:37.486Z,3.42
2019-03-24T23:28:06.381Z,3.57
2019-03-24T23:30:34.992Z,3.20
2019-03-24T23:33:03.883Z,3.77
2019-03-24T23:35:32.302Z,3.93
2019-03-24T23:38:00.767Z,3.57
2019-03-24T23:40:29.531Z,3.97
2019-03-24T23:42:57.943Z,3.33
2019-03-24T23:45:26.590Z,3.77
2019-03-24T23:47:54.980Z,3.47
2019-03-24T23:50:23.392Z,3.37
2019-03-24T23:52:51.847Z,3.90
2019-03-24T23:55:20.270Z,3.80
2019-03-24T23:57:48.656Z,3.90
